createdAt,value
2023-03-16T00:00:53.983Z,99535.66
2023-03-16T00:03:21.953Z,99540.44
2023-03-16T00:05:51.553Z,99543.31
2023-03-16T00:08:19.617Z,99545.00
2023-03-16T00:10:47.992Z,99543.97
2023-03-16T00:13:17.170Z,99546.69
2023-03-16T00:15:55.378Z,99552.88
2023-03-16T00:18:27.220Z,99551.87
2023-03-16T00:20:59.511Z,99559.81
2023-03-16T00:23:27.371Z,99555.66
2023-03-16T00:25:59.699Z,99556.34
2023-03-16T00:28:28.361Z,99560.53
2023-03-16T00:30:59.181Z,99565.47
2023-03-16T00:33:27.367Z,99568.03
2023-03-16T00:36:02.382Z,99556.38
2023-03-16T00:38:34.975Z,99566.84
2023-03-16T00:41:04.177Z,99560.41
2023-03-16T00:43:41.029Z,99568.63
2023-03-16T00:46:13.437Z,99557.00
2023-03-16T00:48:43.482Z,99561.66
2023-03-16T00:51:16.292Z,99549.50
2023-03-16T00:53:45.187Z,99561.50
2023-03-16T00:56:14.065Z,99564.91
2023-03-16T00:58:43.522Z,99561.69
2023-03-16T01:01:15.219Z,99566.63
2023-03-16T01:03:42.951Z,99565.59
2023-03-16T01:06:17.120Z,99567.50
2023-03-16T01:08:45.378Z,99565.41
2023-03-16T01:11:17.432Z,99574.16
2023-03-16T01:13:47.181Z,99582.31
2023-03-16T01:16:16.146Z,99573.38
2023-03-16T01:18:43.596Z,99573.41
2023-03-16T01:21:15.508Z,99575.84
2023-03-16T01:23:44.243Z,99577.06
2023-03-16T01:26:12.836Z,99583.59
2023-03-16T01:28:40.256Z,99580.34
2023-03-16T01:31:09.964Z,99589.31
2023-03-16T01:33:38.490Z,99580.13
2023-03-16T01:36:10.448Z,99582.91
2023-03-16T01:38:38.445Z,99587.00
2023-03-16T01:41:06.182Z,99592.09
2023-03-16T01:43:35.103Z,99585.66
2023-03-16T01:46:05.702Z,99592.00
2023-03-16T01:48:37.617Z,99592.19
2023-03-16T01:51:08.058Z,99585.00
2023-03-16T01:53:36.069Z,99581.94
2023-03-16T01:56:08.392Z,99586.88
2023-03-16T01:58:37.486Z,99589.03
2023-03-16T02:01:05.546Z,99591.78
2023-03-16T02:03:36.477Z,99607.72
2023-03-16T02:06:11.789Z,99605.44
2023-03-16T02:08:42.874Z,99609.56
2023-03-16T02:11:10.450Z,99610.88
2023-03-16T02:13:38.677Z,99618.59
2023-03-16T02:16:07.603Z,99624.66
2023-03-16T02:18:35.354Z,99618.59
2023-03-16T02:21:35.246Z,99620.69
2023-03-16T02:24:04.600Z,99636.50
2023-03-16T02:27:08.305Z,99619.50
2023-03-16T02:30:02.357Z,99634.91
2023-03-16T02:32:32.619Z,99639.59
2023-03-16T02:35:02.466Z,99638.78
2023-03-16T02:37:30.026Z,99636.34
2023-03-16T02:39:57.450Z,99644.50
2023-03-16T02:42:26.533Z,99647.16
2023-03-16T02:44:58.412Z,99643.09
2023-03-16T02:47:43.795Z,99653.50
2023-03-16T02:50:13.072Z,99661.28
2023-03-16T02:52:41.929Z,99656.66
2023-03-16T02:55:09.747Z,99657.72
2023-03-16T02:57:37.182Z,99659.25
2023-03-16T03:00:11.685Z,99664.81
2023-03-16T03:02:39.303Z,99668.41
2023-03-16T03:05:07.209Z,99666.91
2023-03-16T03:07:34.769Z,99671.41
2023-03-16T03:10:03.019Z,99685.41
2023-03-16T03:12:31.147Z,99697.44
2023-03-16T03:14:59.050Z,99697.06
2023-03-16T03:17:30.213Z,99690.13
2023-03-16T03:19:59.789Z,99696.00
2023-03-16T03:22:27.327Z,99700.59
2023-03-16T03:24:54.788Z,99700.50
2023-03-16T03:27:22.868Z,99708.66
2023-03-16T03:29:52.412Z,99708.91
2023-03-16T03:32:22.452Z,99714.94
2023-03-16T03:34:50.116Z,99709.03
2023-03-16T03:37:17.557Z,99709.34
2023-03-16T03:39:45.671Z,99716.25
2023-03-16T03:42:13.854Z,99720.25
2023-03-16T03:44:41.379Z,99718.94
2023-03-16T03:47:09.016Z,99722.91
2023-03-16T03:49:36.751Z,99728.25
2023-03-16T03:52:05.100Z,99733.56
2023-03-16T03:54:32.634Z,99732.59
2023-03-16T03:57:00.697Z,99742.00
2023-03-16T03:59:28.081Z,99738.88
2023-03-16T04:01:57.370Z,99731.69
2023-03-16T04:04:25.652Z,99742.87
2023-03-16T04:06:53.213Z,99745.47
2023-03-16T04:09:20.853Z,99745.12
2023-03-16T04:11:48.743Z,99739.94
2023-03-16T04:14:16.152Z,99744.84
2023-03-16T04:16:44.479Z,99742.63
2023-03-16T04:19:12.845Z,99740.66
2023-03-16T04:21:40.259Z,99746.66
2023-03-16T04:24:07.877Z,99747.50
2023-03-16T04:26:36.500Z,99743.88
2023-03-16T04:29:04.223Z,99749.25
2023-03-16T04:31:32.123Z,99752.22
2023-03-16T04:34:00.007Z,99752.47
2023-03-16T04:36:27.476Z,99764.75
2023-03-16T04:38:55.863Z,99763.75
2023-03-16T04:41:24.263Z,99764.28
2023-03-16T04:43:52.571Z,99772.97
2023-03-16T04:46:20.156Z,99767.50
2023-03-16T04:48:47.940Z,99765.97
2023-03-16T04:51:15.491Z,99772.56
2023-03-16T04:53:44.662Z,99785.88
2023-03-16T04:56:19.701Z,99789.00
2023-03-16T04:58:49.394Z,99791.75
2023-03-16T05:01:18.422Z,99792.34
2023-03-16T05:03:46.477Z,99783.19
2023-03-16T05:06:14.544Z,99798.91
2023-03-16T05:08:42.521Z,99800.12
2023-03-16T05:11:10.250Z,99805.06
2023-03-16T05:13:38.503Z,99801.31
2023-03-16T05:16:07.229Z,99811.19
2023-03-16T05:18:35.606Z,99810.69
2023-03-16T05:21:03.178Z,99813.34
2023-03-16T05:23:32.119Z,99815.06
2023-03-16T05:26:01.047Z,99825.34
2023-03-16T05:28:28.893Z,99819.16
2023-03-16T05:30:57.876Z,99814.91
2023-03-16T05:33:25.763Z,99821.66
2023-03-16T05:35:54.278Z,99817.94
2023-03-16T05:38:23.033Z,99814.91
2023-03-16T05:40:53.171Z,99811.72
2023-03-16T05:43:23.168Z,99808.03
2023-03-16T05:45:50.851Z,99819.88
2023-03-16T05:48:18.510Z,99821.34
2023-03-16T05:50:47.005Z,99824.13
2023-03-16T05:53:15.327Z,99828.00
2023-03-16T05:55:42.957Z,99833.37
2023-03-16T05:58:11.889Z,99833.50
2023-03-16T06:00:39.707Z,99830.75
2023-03-16T06:03:08.024Z,99841.13
2023-03-16T06:05:35.893Z,99843.47
2023-03-16T06:08:03.781Z,99851.13
2023-03-16T06:10:31.779Z,99856.72
2023-03-16T06:13:00.018Z,99857.63
2023-03-16T06:15:30.411Z,99856.59
2023-03-16T06:17:58.878Z,99860.34
2023-03-16T06:20:26.476Z,99866.22
2023-03-16T06:22:55.838Z,99864.19
2023-03-16T06:25:24.169Z,99885.66
2023-03-16T06:27:52.189Z,99880.22
2023-03-16T06:30:20.418Z,99884.00
2023-03-16T06:32:48.649Z,99884.41
2023-03-16T06:35:16.177Z,99882.25
2023-03-16T06:37:44.593Z,99885.88
2023-03-16T06:40:15.378Z,99890.28
2023-03-16T06:42:43.720Z,99892.28
2023-03-16T06:45:13.814Z,99897.09
2023-03-16T06:47:41.340Z,99903.41
2023-03-16T06:50:11.903Z,99910.37
2023-03-16T06:52:41.556Z,99907.19
2023-03-16T06:55:09.769Z,99907.91
2023-03-16T06:57:37.877Z,99919.50
2023-03-16T07:00:07.405Z,99921.09
2023-03-16T07:02:35.814Z,99920.44
2023-03-16T07:05:03.911Z,99919.47
2023-03-16T07:07:31.651Z,99921.50
2023-03-16T07:09:59.331Z,99926.63
2023-03-16T07:12:26.742Z,99941.31
2023-03-16T07:14:55.324Z,99932.47
2023-03-16T07:17:23.251Z,99949.97
2023-03-16T07:19:50.802Z,99945.09
2023-03-16T07:22:19.410Z,99946.72
2023-03-16T07:24:46.907Z,99950.72
2023-03-16T07:27:14.728Z,99956.31
2023-03-16T07:29:42.998Z,99963.41
2023-03-16T07:32:10.532Z,99959.03
2023-03-16T07:34:38.277Z,99969.69
2023-03-16T07:37:06.540Z,99968.69
2023-03-16T07:39:35.548Z,99962.37
2023-03-16T07:42:04.232Z,99968.50
2023-03-16T07:44:32.379Z,99966.91
2023-03-16T07:46:59.787Z,99960.63
2023-03-16T07:49:28.396Z,99972.09
2023-03-16T07:51:56.688Z,99967.34
2023-03-16T07:54:25.272Z,99972.88
2023-03-16T07:56:52.694Z,99974.00
2023-03-16T07:59:23.386Z,99972.00
2023-03-16T08:01:50.891Z,99978.31
2023-03-16T08:04:19.104Z,99974.47
2023-03-16T08:06:47.894Z,99969.00
2023-03-16T08:09:15.467Z,99964.47
2023-03-16T08:11:44.399Z,99966.59
2023-03-16T08:14:11.842Z,99968.91
2023-03-16T08:16:40.482Z,99979.81
2023-03-16T08:19:08.662Z,99974.47
2023-03-16T08:21:45.788Z,99983.03
2023-03-16T08:24:24.397Z,99989.03
2023-03-16T08:26:51.803Z,99992.19
2023-03-16T08:29:19.605Z,99999.06
2023-03-16T08:31:48.192Z,99996.06
2023-03-16T08:34:16.118Z,99988.69
2023-03-16T08:36:44.209Z,99982.81
2023-03-16T08:39:12.230Z,99989.94
2023-03-16T08:41:40.950Z,99993.50
2023-03-16T08:44:10.752Z,99987.03
2023-03-16T08:46:39.286Z,99986.03
2023-03-16T08:49:06.993Z,99984.31
2023-03-16T08:51:34.613Z,99993.34
2023-03-16T08:54:02.296Z,99988.72
2023-03-16T08:56:30.508Z,99980.03
2023-03-16T08:58:58.515Z,99983.19
2023-03-16T09:01:26.815Z,99987.47
2023-03-16T09:03:54.991Z,99988.81
2023-03-16T09:06:22.619Z,99987.09
2023-03-16T09:08:50.314Z,99988.81
2023-03-16T09:11:19.017Z,99983.50
2023-03-16T09:13:47.284Z,99985.56
2023-03-16T09:16:16.260Z,99998.72
2023-03-16T09:18:43.981Z,99992.22
2023-03-16T09:21:13.869Z,99997.34
2023-03-16T09:23:42.860Z,99996.97
2023-03-16T09:26:12.531Z,99998.38
2023-03-16T09:28:42.250Z,99996.81
2023-03-16T09:31:16.801Z,99998.56
2023-03-16T09:33:44.461Z,99994.66
2023-03-16T09:36:13.470Z,100001.38
2023-03-16T09:38:42.380Z,100004.91
2023-03-16T09:41:22.468Z,100008.66
2023-03-16T09:44:09.193Z,100006.78
2023-03-16T09:46:42.353Z,100006.16
2023-03-16T09:49:11.954Z,100004.59
2023-03-16T09:51:51.319Z,100000.19
2023-03-16T09:54:24.948Z,100009.44
2023-03-16T09:56:52.873Z,100004.91
2023-03-16T09:59:22.532Z,100007.56
2023-03-16T10:01:58.322Z,100014.84
2023-03-16T10:04:47.242Z,100015.44
2023-03-16T10:07:30.152Z,100010.97
2023-03-16T10:10:00.456Z,100011.91
2023-03-16T10:12:35.269Z,100005.59
2023-03-16T10:15:06.770Z,100015.97
2023-03-16T10:17:44.804Z,100014.16
2023-03-16T10:20:20.701Z,100004.03
2023-03-16T10:22:50.834Z,100017.72
2023-03-16T10:25:35.808Z,100020.00
2023-03-16T10:28:03.183Z,100022.22
2023-03-16T10:30:38.592Z,100015.88
2023-03-16T10:33:25.871Z,100015.41
2023-03-16T10:36:05.684Z,100021.66
2023-03-16T10:38:49.388Z,100028.75
2023-03-16T10:41:20.649Z,100023.78
2023-03-16T10:43:52.612Z,100014.34
2023-03-16T10:46:20.369Z,100009.84
2023-03-16T10:48:53.209Z,100012.81
2023-03-16T10:51:25.675Z,100013.28
2023-03-16T10:53:54.509Z,100006.72
2023-03-16T10:56:25.467Z,100011.28
2023-03-16T10:58:52.883Z,100006.00
2023-03-16T11:01:27.601Z,100004.59
2023-03-16T11:03:57.082Z,100002.87
2023-03-16T11:06:33.051Z,100004.56
2023-03-16T11:09:09.706Z,100005.25
2023-03-16T11:11:37.398Z,100003.88
2023-03-16T11:14:12.841Z,100009.78
2023-03-16T11:16:46.633Z,100005.69
2023-03-16T11:19:27.269Z,99994.09
2023-03-16T11:22:04.654Z,100000.72
2023-03-16T11:24:54.176Z,99995.59
2023-03-16T11:27:37.112Z,99994.34
2023-03-16T11:30:11.786Z,99996.75
2023-03-16T11:32:41.515Z,99982.41
2023-03-16T11:35:18.414Z,99986.41
2023-03-16T11:37:51.853Z,99976.13
2023-03-16T11:40:41.184Z,99982.28
2023-03-16T11:43:39.505Z,99977.72
2023-03-16T11:46:20.186Z,99971.78
2023-03-16T11:48:53.378Z,99970.16
2023-03-16T11:52:15.490Z,99977.78
2023-03-16T11:55:10.718Z,99975.03
2023-03-16T11:58:09.732Z,99971.22
2023-03-16T12:01:24.734Z,99961.97
2023-03-16T12:03:58.460Z,99965.16
2023-03-16T12:06:33.916Z,99967.97
2023-03-16T12:09:06.436Z,99968.59
2023-03-16T12:11:48.214Z,99971.97
2023-03-16T12:14:30.300Z,99964.88
2023-03-16T12:17:04.898Z,99962.25
2023-03-16T12:19:50.875Z,99960.78
2023-03-16T12:22:27.079Z,99965.56
2023-03-16T12:24:55.245Z,99958.50
2023-03-16T12:27:38.849Z,99970.28
2023-03-16T12:30:15.341Z,99960.47
2023-03-16T12:32:53.499Z,99962.16
2023-03-16T12:35:45.733Z,99960.72
2023-03-16T12:38:28.772Z,99962.69
2023-03-16T12:41:17.665Z,99963.16
2023-03-16T12:44:12.641Z,99960.78
2023-03-16T12:47:15.460Z,99955.59
2023-03-16T12:49:43.213Z,99963.75
2023-03-16T12:52:12.858Z,99954.47
2023-03-16T12:55:17.722Z,99957.88
2023-03-16T12:57:47.217Z,99949.97
2023-03-16T13:00:15.690Z,99965.66
2023-03-16T13:02:47.286Z,99964.06
2023-03-16T13:05:17.694Z,99958.25
2023-03-16T13:08:06.857Z,99973.81
2023-03-16T13:10:34.852Z,99959.34
2023-03-16T13:13:15.028Z,99954.84
2023-03-16T13:15:47.379Z,99961.66
2023-03-16T13:18:15.057Z,99965.56
2023-03-16T13:20:48.476Z,99971.72
2023-03-16T13:23:19.150Z,99960.41
2023-03-16T13:26:16.977Z,99968.72
2023-03-16T13:28:51.018Z,99966.69
2023-03-16T13:31:35.895Z,99964.44
2023-03-16T13:34:04.177Z,99966.72
2023-03-16T13:36:32.698Z,99961.97
2023-03-16T13:39:15.541Z,99962.22
2023-03-16T13:41:43.810Z,99960.03
2023-03-16T13:44:14.829Z,99968.84
2023-03-16T13:46:42.283Z,99961.97
2023-03-16T13:49:12.445Z,99966.78
2023-03-16T13:51:40.005Z,99955.19
2023-03-16T13:54:23.612Z,99961.34
2023-03-16T13:56:53.002Z,99964.81
2023-03-16T13:59:21.609Z,99967.47
2023-03-16T14:01:49.243Z,99965.78
2023-03-16T14:04:20.072Z,99957.63
2023-03-16T14:07:01.954Z,99953.00
2023-03-16T14:09:34.498Z,99959.12
2023-03-16T14:12:02.564Z,99960.25
2023-03-16T14:14:32.397Z,99970.19
2023-03-16T14:17:02.953Z,99968.31
2023-03-16T14:19:36.097Z,99972.91
2023-03-16T14:22:06.933Z,99971.03
2023-03-16T14:24:37.421Z,99973.25
2023-03-16T14:27:21.833Z,99966.53
2023-03-16T14:30:15.433Z,99975.06
2023-03-16T14:32:58.492Z,99966.09
2023-03-16T14:35:31.850Z,99970.72
2023-03-16T14:38:21.760Z,99969.69
2023-03-16T14:40:54.885Z,99984.63
2023-03-16T14:43:29.318Z,99979.94
2023-03-16T14:45:57.521Z,99974.34
2023-03-16T14:48:25.353Z,99971.94
2023-03-16T14:50:54.864Z,99970.13
2023-03-16T14:53:24.283Z,99986.44
2023-03-16T14:55:52.228Z,99990.06
2023-03-16T14:58:19.632Z,99986.00
2023-03-16T15:00:53.157Z,99987.31
2023-03-16T15:03:27.063Z,99974.62
2023-03-16T15:05:54.767Z,99985.50
2023-03-16T15:08:28.712Z,99982.28
2023-03-16T15:10:58.909Z,99991.56
2023-03-16T15:13:42.496Z,99983.66
2023-03-16T15:16:11.730Z,99988.69
2023-03-16T15:18:39.904Z,99984.25
2023-03-16T15:21:12.965Z,99994.44
2023-03-16T15:23:42.884Z,99994.37
2023-03-16T15:26:16.120Z,99989.94
2023-03-16T15:28:43.990Z,99991.34
2023-03-16T15:31:14.209Z,99989.81
2023-03-16T15:33:42.215Z,99988.13
2023-03-16T15:36:20.494Z,99994.22
2023-03-16T15:38:53.985Z,99998.97
2023-03-16T15:41:23.461Z,100010.44
2023-03-16T15:43:52.698Z,100002.47
2023-03-16T15:46:20.900Z,100012.06
2023-03-16T15:48:48.594Z,100017.38
2023-03-16T15:51:30.705Z,100018.69
2023-03-16T15:54:00.443Z,100012.56
2023-03-16T15:56:51.019Z,100022.03
2023-03-16T15:59:22.242Z,100024.84
2023-03-16T16:01:50.624Z,100014.59
2023-03-16T16:04:23.501Z,100023.59
2023-03-16T16:06:54.809Z,100023.34
2023-03-16T16:09:22.824Z,100027.28
2023-03-16T16:11:51.432Z,100034.56
2023-03-16T16:14:24.816Z,100035.72
2023-03-16T16:16:54.430Z,100040.69
2023-03-16T16:19:22.060Z,100038.53
2023-03-16T16:21:49.540Z,100038.66
2023-03-16T16:24:18.394Z,100042.66
2023-03-16T16:26:54.941Z,100045.66
2023-03-16T16:29:25.768Z,100053.72
2023-03-16T16:31:53.449Z,100053.59
2023-03-16T16:34:24.659Z,100060.34
2023-03-16T16:36:56.485Z,100057.63
2023-03-16T16:39:24.255Z,100069.69
2023-03-16T16:41:54.677Z,100075.41
2023-03-16T16:44:24.683Z,100072.13
2023-03-16T16:46:52.820Z,100075.66
2023-03-16T16:49:31.059Z,100086.78
2023-03-16T16:51:59.617Z,100086.47
2023-03-16T16:54:31.264Z,100092.00
2023-03-16T16:56:59.945Z,100097.28
2023-03-16T16:59:32.182Z,100095.63
2023-03-16T17:02:16.420Z,100099.53
2023-03-16T17:04:43.927Z,100105.44
2023-03-16T17:07:12.633Z,100107.00
2023-03-16T17:09:40.072Z,100105.28
2023-03-16T17:12:21.177Z,100112.63
2023-03-16T17:14:49.864Z,100113.06
2023-03-16T17:17:18.068Z,100113.91
2023-03-16T17:19:46.927Z,100122.50
2023-03-16T17:22:25.953Z,100122.03
2023-03-16T17:24:54.207Z,100123.47
2023-03-16T17:27:26.163Z,100125.97
2023-03-16T17:29:54.298Z,100122.28
2023-03-16T17:32:25.744Z,100123.28
2023-03-16T17:34:53.488Z,100127.09
2023-03-16T17:37:22.176Z,100132.59
2023-03-16T17:39:49.944Z,100126.97
2023-03-16T17:42:19.509Z,100134.78
2023-03-16T17:44:51.145Z,100136.75
2023-03-16T17:47:27.396Z,100137.97
2023-03-16T17:49:55.039Z,100141.41
2023-03-16T17:52:25.734Z,100143.62
2023-03-16T17:54:54.261Z,100145.81
2023-03-16T17:57:28.952Z,100146.19
2023-03-16T17:59:57.305Z,100156.56
2023-03-16T18:02:41.989Z,100145.22
2023-03-16T18:05:22.132Z,100145.09
2023-03-16T18:07:50.886Z,100154.38
2023-03-16T18:10:21.961Z,100148.75
2023-03-16T18:12:55.626Z,100154.75
2023-03-16T18:15:31.133Z,100161.34
2023-03-16T18:17:58.586Z,100156.47
2023-03-16T18:20:30.955Z,100167.59
2023-03-16T18:23:00.049Z,100171.59
2023-03-16T18:25:30.333Z,100169.59
2023-03-16T18:27:58.527Z,100183.25
2023-03-16T18:30:27.243Z,100173.84
2023-03-16T18:32:55.638Z,100175.72
2023-03-16T18:35:23.240Z,100178.28
2023-03-16T18:37:50.942Z,100178.88
2023-03-16T18:40:19.246Z,100179.44
2023-03-16T18:42:47.557Z,100180.63
2023-03-16T18:45:16.628Z,100186.59
2023-03-16T18:47:50.534Z,100189.13
2023-03-16T18:50:21.943Z,100186.59
2023-03-16T18:52:50.463Z,100198.12
2023-03-16T18:55:21.194Z,100193.91
2023-03-16T18:57:56.400Z,100195.63
2023-03-16T19:00:26.590Z,100197.94
2023-03-16T19:02:57.000Z,100206.75
2023-03-16T19:05:35.660Z,100219.16
2023-03-16T19:08:05.027Z,100219.63
2023-03-16T19:10:37.976Z,100212.09
2023-03-16T19:13:14.580Z,100211.59
2023-03-16T19:15:42.468Z,100218.41
2023-03-16T19:18:10.282Z,100219.63
2023-03-16T19:20:37.817Z,100231.13
2023-03-16T19:23:08.921Z,100254.88
2023-03-16T19:25:38.569Z,100264.03
2023-03-16T19:28:10.284Z,100260.63
2023-03-16T19:30:38.611Z,100268.09
2023-03-16T19:33:18.317Z,100269.59
2023-03-16T19:35:51.919Z,100264.41
2023-03-16T19:38:22.270Z,100284.97
2023-03-16T19:40:54.347Z,100285.25
2023-03-16T19:43:23.398Z,100282.91
2023-03-16T19:45:51.059Z,100290.31
2023-03-16T19:48:42.320Z,100291.59
2023-03-16T19:51:14.784Z,100291.78
2023-03-16T19:53:42.863Z,100295.53
2023-03-16T19:56:20.948Z,100298.44
2023-03-16T19:58:52.365Z,100297.19
2023-03-16T20:01:23.443Z,100305.03
2023-03-16T20:03:52.900Z,100303.31
2023-03-16T20:06:22.818Z,100311.13
2023-03-16T20:08:51.354Z,100315.41
2023-03-16T20:11:28.619Z,100311.06
2023-03-16T20:13:56.758Z,100311.19
2023-03-16T20:16:36.214Z,100311.50
2023-03-16T20:19:12.288Z,100312.84
2023-03-16T20:21:40.657Z,100314.03
2023-03-16T20:24:16.287Z,100313.00
2023-03-16T20:26:45.685Z,100310.97
2023-03-16T20:29:28.717Z,100312.84
2023-03-16T20:31:56.910Z,100314.06
2023-03-16T20:34:27.086Z,100319.88
2023-03-16T20:36:55.116Z,100330.47
2023-03-16T20:39:22.820Z,100327.78
2023-03-16T20:41:50.930Z,100330.69
2023-03-16T20:44:20.147Z,100328.06
2023-03-16T20:46:48.056Z,100334.53
2023-03-16T20:49:25.433Z,100336.38
2023-03-16T20:51:53.283Z,100337.28
2023-03-16T20:54:20.943Z,100331.28
2023-03-16T20:56:49.194Z,100334.44
2023-03-16T20:59:20.344Z,100326.19
2023-03-16T21:01:49.698Z,100339.31
2023-03-16T21:04:26.178Z,100343.06
2023-03-16T21:06:54.242Z,100339.22
2023-03-16T21:09:22.215Z,100346.94
2023-03-16T21:11:49.885Z,100349.31
2023-03-16T21:14:22.003Z,100350.56
2023-03-16T21:16:50.581Z,100340.69
2023-03-16T21:19:21.126Z,100341.28
2023-03-16T21:21:48.641Z,100343.94
2023-03-16T21:24:16.548Z,100353.47
2023-03-16T21:26:45.169Z,100352.59
2023-03-16T21:29:17.532Z,100356.97
2023-03-16T21:31:45.358Z,100358.19
2023-03-16T21:34:22.460Z,100359.69
2023-03-16T21:36:50.434Z,100355.19
2023-03-16T21:39:20.268Z,100363.34
2023-03-16T21:41:50.557Z,100370.44
2023-03-16T21:44:18.693Z,100368.22
2023-03-16T21:46:47.409Z,100363.81
2023-03-16T21:49:15.789Z,100360.66
2023-03-16T21:51:43.812Z,100366.13
2023-03-16T21:54:14.671Z,100364.53
2023-03-16T21:56:43.035Z,100364.00
2023-03-16T21:59:11.606Z,100360.34
2023-03-16T22:01:50.879Z,100365.28
2023-03-16T22:04:26.759Z,100370.41
2023-03-16T22:06:54.204Z,100371.94
2023-03-16T22:09:29.891Z,100363.47
2023-03-16T22:11:57.712Z,100363.91
2023-03-16T22:14:25.219Z,100371.81
2023-03-16T22:16:52.688Z,100378.69
2023-03-16T22:19:21.025Z,100376.72
2023-03-16T22:21:49.901Z,100371.56
2023-03-16T22:24:19.703Z,100373.19
2023-03-16T22:26:49.060Z,100375.19
2023-03-16T22:29:29.573Z,100380.53
2023-03-16T22:32:01.404Z,100370.69
2023-03-16T22:34:37.441Z,100378.38
2023-03-16T22:37:05.699Z,100378.47
2023-03-16T22:39:36.925Z,100372.84
2023-03-16T22:42:39.112Z,100381.72
2023-03-16T22:45:19.057Z,100383.25
2023-03-16T22:47:47.782Z,100381.44
2023-03-16T22:50:16.650Z,100376.28
2023-03-16T22:52:46.357Z,100378.19
2023-03-16T22:55:20.462Z,100376.94
2023-03-16T22:57:50.584Z,100381.59
2023-03-16T23:00:21.384Z,100371.66
2023-03-16T23:02:49.304Z,100376.41
2023-03-16T23:05:22.705Z,100386.16
2023-03-16T23:07:51.936Z,100391.19
2023-03-16T23:10:22.911Z,100391.06
2023-03-16T23:12:51.817Z,100386.22
2023-03-16T23:15:25.255Z,100392.09
2023-03-16T23:17:53.138Z,100399.69
2023-03-16T23:20:26.162Z,100389.16
2023-03-16T23:22:54.383Z,100403.66
2023-03-16T23:25:23.557Z,100404.78
2023-03-16T23:27:51.831Z,100404.31
2023-03-16T23:30:24.134Z,100395.91
2023-03-16T23:32:53.656Z,100392.28
2023-03-16T23:35:23.870Z,100407.41
2023-03-16T23:37:51.849Z,100400.19
2023-03-16T23:40:20.664Z,100402.75
2023-03-16T23:42:49.038Z,100400.72
2023-03-16T23:45:44.554Z,100405.72
2023-03-16T23:48:18.062Z,100404.06
2023-03-16T23:50:47.811Z,100407.81
2023-03-16T23:53:17.683Z,100414.56
2023-03-16T23:55:45.731Z,100407.06
2023-03-16T23:58:14.454Z,100402.25
